KJRB

Downtown Manhattan / Wall St Heliport

New York, New York, USA
METAR KJRB 221356Z AUTO 26010G57KT 10SM OVC110 08/01 A3028 RMK AO2 PK WND 30057/1348 SLP252 P0002 T00780011
Observed Flight Rules
Oct-22 @ 13:56 UTC (58 minutes ago) Visual Flight Rules
Wind Visibility Clouds
260° at 10 knots
 Gusting to 57 knots
10 miles
  • Overcast at 11,000' AGL
Temperatures Readings Precipitation
Current 8°C / 46°F
Dewpoint 1°C / 34°F
Humidity 62%
Altimeter 30.28" Hg
Pressure 1025.2 hPa
Elevation 7
Current Rain 0.02
METAR KJRB 221356Z AUTO 26010G57KT 10SM OVC110 08/01 A3028 RMK AO2 PK WND 30057/1348 SLP252 P0002 T00780011
Observed Flight Rules
Oct-22 @ 13:56 UTC
(58 minutes ago)
VFR
Wind Visibility
260° at 10 knots
 Gusting to 57 knots
10 miles
Clouds
  • Overcast at 11,000' AGL
Temperature Dewpoint
8°C / 46°F 1°C / 34°F
Humidity Altimeter Pressure
62% 30.28" Hg 1025.2 hPa
Current Rain
0.02